Terminal Aerodrome Forecast
Issued by NWS Charleston, WV

Current Version | Previous Version | Text Only | Print | Product List | Glossary Off
Versions: 1 2 3 4 5 6 7 8 9 10 11 12 13 14 15 16 17 18 19 20 21 22 23 24 25 26 27 28 29 30 31 32

000
FTUS41 KRLX 261100
TAFBKW
TAF
KBKW 261131Z 2612/2712 35004KT 1SM BR OVC003
     FM261400 34004KT 6SM BR OVC006
     FM261700 32005KT P6SM BKN015
     FM262000 33007KT P6SM BKN030
     FM262200 33008KT P6SM BKN035=

USA.gov is the U.S. government's official web portal to all federal, state and local government web resources and services.